sensor_id;sensor_type;location;lat;lon;timestamp;P1;durP1;ratioP1;P2;durP2;ratioP2
72427;SDS011;60419;48.880;18.036;2024-01-30T00:02:38;40.15;;;19.98;;
72427;SDS011;60419;48.880;18.036;2024-01-30T00:05:24;51.15;;;24.40;;
72427;SDS011;60419;48.880;18.036;2024-01-30T00:08:09;47.78;;;23.60;;
72427;SDS011;60419;48.880;18.036;2024-01-30T00:10:54;44.25;;;22.58;;
72427;SDS011;60419;48.880;18.036;2024-01-30T00:13:40;48.88;;;23.95;;
72427;SDS011;60419;48.880;18.036;2024-01-30T00:16:26;48.45;;;23.90;;
72427;SDS011;60419;48.880;18.036;2024-01-30T00:19:11;49.47;;;23.05;;
72427;SDS011;60419;48.880;18.036;2024-01-30T00:21:57;48.58;;;24.70;;
72427;SDS011;60419;48.880;18.036;2024-01-30T00:24:42;50.60;;;25.58;;
72427;SDS011;60419;48.880;18.036;2024-01-30T00:27:28;53.50;;;25.10;;
72427;SDS011;60419;48.880;18.036;2024-01-30T00:30:13;50.97;;;23.88;;
72427;SDS011;60419;48.880;18.036;2024-01-30T00:32:59;55.22;;;23.83;;
72427;SDS011;60419;48.880;18.036;2024-01-30T00:35:44;47.83;;;22.38;;
72427;SDS011;60419;48.880;18.036;2024-01-30T00:38:30;47.75;;;23.17;;
72427;SDS011;60419;48.880;18.036;2024-01-30T00:41:18;44.75;;;20.58;;
72427;SDS011;60419;48.880;18.036;2024-01-30T00:44:04;51.17;;;25.73;;
72427;SDS011;60419;48.880;18.036;2024-01-30T00:46:49;42.20;;;22.00;;
72427;SDS011;60419;48.880;18.036;2024-01-30T00:49:35;43.20;;;22.73;;
72427;SDS011;60419;48.880;18.036;2024-01-30T00:52:21;42.85;;;22.52;;
72427;SDS011;60419;48.880;18.036;2024-01-30T00:55:06;37.03;;;18.88;;
72427;SDS011;60419;48.880;18.036;2024-01-30T00:57:51;40.47;;;20.15;;
72427;SDS011;60419;48.880;18.036;2024-01-30T01:00:37;42.38;;;20.33;;
72427;SDS011;60419;48.880;18.036;2024-01-30T01:03:22;39.28;;;18.02;;
72427;SDS011;60419;48.880;18.036;2024-01-30T01:06:07;35.22;;;16.77;;
72427;SDS011;60419;48.880;18.036;2024-01-30T01:08:53;31.25;;;17.30;;
72427;SDS011;60419;48.880;18.036;2024-01-30T01:11:38;36.38;;;18.50;;
72427;SDS011;60419;48.880;18.036;2024-01-30T01:14:24;40.33;;;20.15;;
72427;SDS011;60419;48.880;18.036;2024-01-30T01:17:10;36.50;;;19.73;;
72427;SDS011;60419;48.880;18.036;2024-01-30T01:19:56;42.75;;;23.00;;
72427;SDS011;60419;48.880;18.036;2024-01-30T01:22:42;46.30;;;23.00;;
72427;SDS011;60419;48.880;18.036;2024-01-30T01:25:27;45.67;;;23.33;;
72427;SDS011;60419;48.880;18.036;2024-01-30T01:28:13;46.08;;;23.88;;
72427;SDS011;60419;48.880;18.036;2024-01-30T01:30:58;50.60;;;25.13;;
72427;SDS011;60419;48.880;18.036;2024-01-30T01:36:35;60.50;;;27.92;;
72427;SDS011;60419;48.880;18.036;2024-01-30T01:39:22;47.65;;;24.05;;
72427;SDS011;60419;48.880;18.036;2024-01-30T01:42:08;49.80;;;24.48;;
72427;SDS011;60419;48.880;18.036;2024-01-30T01:44:54;46.63;;;25.02;;
72427;SDS011;60419;48.880;18.036;2024-01-30T01:47:39;47.00;;;24.00;;
72427;SDS011;60419;48.880;18.036;2024-01-30T01:50:24;52.70;;;24.98;;
72427;SDS011;60419;48.880;18.036;2024-01-30T01:53:11;55.60;;;27.05;;
72427;SDS011;60419;48.880;18.036;2024-01-30T01:55:57;50.60;;;25.55;;
72427;SDS011;60419;48.880;18.036;2024-01-30T01:58:43;47.63;;;24.20;;
72427;SDS011;60419;48.880;18.036;2024-01-30T02:01:32;41.95;;;22.77;;
72427;SDS011;60419;48.880;18.036;2024-01-30T02:04:18;42.78;;;22.10;;
72427;SDS011;60419;48.880;18.036;2024-01-30T02:07:03;46.22;;;22.17;;
72427;SDS011;60419;48.880;18.036;2024-01-30T02:09:48;47.97;;;24.13;;
72427;SDS011;60419;48.880;18.036;2024-01-30T02:12:34;39.17;;;20.58;;
72427;SDS011;60419;48.880;18.036;2024-01-30T02:15:19;40.17;;;21.00;;
72427;SDS011;60419;48.880;18.036;2024-01-30T02:18:05;36.10;;;18.98;;
72427;SDS011;60419;48.880;18.036;2024-01-30T02:20:50;44.67;;;23.75;;
72427;SDS011;60419;48.880;18.036;2024-01-30T02:23:39;42.25;;;21.77;;
72427;SDS011;60419;48.880;18.036;2024-01-30T02:26:26;40.90;;;21.70;;
72427;SDS011;60419;48.880;18.036;2024-01-30T02:29:11;41.65;;;20.45;;
72427;SDS011;60419;48.880;18.036;2024-01-30T02:31:56;41.97;;;22.20;;
72427;SDS011;60419;48.880;18.036;2024-01-30T02:34:42;42.17;;;21.17;;
72427;SDS011;60419;48.880;18.036;2024-01-30T02:37:27;40.95;;;21.92;;
72427;SDS011;60419;48.880;18.036;2024-01-30T02:40:13;45.08;;;22.08;;
72427;SDS011;60419;48.880;18.036;2024-01-30T02:42:59;46.22;;;22.77;;
72427;SDS011;60419;48.880;18.036;2024-01-30T02:45:45;40.53;;;22.08;;
72427;SDS011;60419;48.880;18.036;2024-01-30T02:48:30;42.78;;;22.15;;
72427;SDS011;60419;48.880;18.036;2024-01-30T02:51:16;44.28;;;23.45;;
72427;SDS011;60419;48.880;18.036;2024-01-30T02:54:01;45.40;;;23.45;;
72427;SDS011;60419;48.880;18.036;2024-01-30T02:56:47;50.47;;;24.23;;
72427;SDS011;60419;48.880;18.036;2024-01-30T02:59:33;45.38;;;23.13;;
72427;SDS011;60419;48.880;18.036;2024-01-30T03:02:20;44.80;;;22.27;;
72427;SDS011;60419;48.880;18.036;2024-01-30T03:05:06;43.13;;;22.02;;
72427;SDS011;60419;48.880;18.036;2024-01-30T03:07:52;43.35;;;23.10;;
72427;SDS011;60419;48.880;18.036;2024-01-30T03:10:38;43.50;;;21.20;;
72427;SDS011;60419;48.880;18.036;2024-01-30T03:13:23;41.92;;;21.30;;
72427;SDS011;60419;48.880;18.036;2024-01-30T03:16:10;44.00;;;21.63;;
72427;SDS011;60419;48.880;18.036;2024-01-30T03:18:55;40.55;;;20.05;;
72427;SDS011;60419;48.880;18.036;2024-01-30T03:21:40;34.72;;;18.48;;
72427;SDS011;60419;48.880;18.036;2024-01-30T03:24:26;35.63;;;17.63;;
72427;SDS011;60419;48.880;18.036;2024-01-30T03:27:11;36.60;;;19.02;;
72427;SDS011;60419;48.880;18.036;2024-01-30T03:29:56;35.20;;;17.90;;
72427;SDS011;60419;48.880;18.036;2024-01-30T03:32:42;34.13;;;17.65;;
72427;SDS011;60419;48.880;18.036;2024-01-30T03:35:27;35.42;;;17.50;;
72427;SDS011;60419;48.880;18.036;2024-01-30T03:38:13;42.03;;;21.38;;
72427;SDS011;60419;48.880;18.036;2024-01-30T03:40:58;46.30;;;23.65;;
72427;SDS011;60419;48.880;18.036;2024-01-30T03:43:44;51.45;;;25.77;;
72427;SDS011;60419;48.880;18.036;2024-01-30T03:46:29;46.85;;;23.77;;
72427;SDS011;60419;48.880;18.036;2024-01-30T03:49:15;45.25;;;23.55;;
72427;SDS011;60419;48.880;18.036;2024-01-30T03:52:00;48.63;;;23.55;;
72427;SDS011;60419;48.880;18.036;2024-01-30T03:54:46;46.60;;;23.77;;
72427;SDS011;60419;48.880;18.036;2024-01-30T03:57:31;44.88;;;24.45;;
72427;SDS011;60419;48.880;18.036;2024-01-30T04:00:17;47.50;;;24.25;;
72427;SDS011;60419;48.880;18.036;2024-01-30T04:03:02;47.25;;;24.75;;
72427;SDS011;60419;48.880;18.036;2024-01-30T04:05:48;47.22;;;25.40;;
72427;SDS011;60419;48.880;18.036;2024-01-30T04:08:33;49.25;;;25.50;;
72427;SDS011;60419;48.880;18.036;2024-01-30T04:11:19;45.15;;;22.33;;
72427;SDS011;60419;48.880;18.036;2024-01-30T04:14:07;37.13;;;18.90;;
72427;SDS011;60419;48.880;18.036;2024-01-30T04:16:53;39.03;;;19.35;;
72427;SDS011;60419;48.880;18.036;2024-01-30T04:19:39;49.22;;;26.05;;
72427;SDS011;60419;48.880;18.036;2024-01-30T04:22:26;45.78;;;23.83;;
72427;SDS011;60419;48.880;18.036;2024-01-30T04:25:14;46.80;;;24.95;;
72427;SDS011;60419;48.880;18.036;2024-01-30T04:27:59;48.67;;;22.15;;
72427;SDS011;60419;48.880;18.036;2024-01-30T04:30:45;49.60;;;24.02;;
72427;SDS011;60419;48.880;18.036;2024-01-30T04:33:30;44.30;;;20.90;;
72427;SDS011;60419;48.880;18.036;2024-01-30T04:36:16;41.67;;;20.38;;
72427;SDS011;60419;48.880;18.036;2024-01-30T04:39:01;37.67;;;18.98;;
72427;SDS011;60419;48.880;18.036;2024-01-30T04:41:47;36.92;;;18.05;;
72427;SDS011;60419;48.880;18.036;2024-01-30T04:44:33;37.53;;;16.42;;
72427;SDS011;60419;48.880;18.036;2024-01-30T04:47:18;27.95;;;14.65;;
72427;SDS011;60419;48.880;18.036;2024-01-30T04:50:04;34.45;;;16.30;;
72427;SDS011;60419;48.880;18.036;2024-01-30T04:52:53;32.95;;;15.95;;
72427;SDS011;60419;48.880;18.036;2024-01-30T04:55:39;32.20;;;15.55;;
72427;SDS011;60419;48.880;18.036;2024-01-30T04:58:24;37.38;;;17.40;;
72427;SDS011;60419;48.880;18.036;2024-01-30T05:01:10;35.15;;;18.33;;
72427;SDS011;60419;48.880;18.036;2024-01-30T05:04:00;38.22;;;16.52;;
72427;SDS011;60419;48.880;18.036;2024-01-30T05:06:46;32.83;;;15.75;;
72427;SDS011;60419;48.880;18.036;2024-01-30T05:09:31;31.67;;;14.75;;
72427;SDS011;60419;48.880;18.036;2024-01-30T05:12:16;25.08;;;12.50;;
72427;SDS011;60419;48.880;18.036;2024-01-30T05:15:02;23.73;;;12.35;;
72427;SDS011;60419;48.880;18.036;2024-01-30T05:17:48;24.25;;;12.23;;
72427;SDS011;60419;48.880;18.036;2024-01-30T05:20:33;25.92;;;13.23;;
72427;SDS011;60419;48.880;18.036;2024-01-30T05:23:18;23.10;;;12.02;;
72427;SDS011;60419;48.880;18.036;2024-01-30T05:26:04;23.70;;;11.50;;
72427;SDS011;60419;48.880;18.036;2024-01-30T05:28:50;26.00;;;12.07;;
72427;SDS011;60419;48.880;18.036;2024-01-30T05:31:36;22.17;;;12.07;;
72427;SDS011;60419;48.880;18.036;2024-01-30T05:34:21;30.02;;;14.40;;
72427;SDS011;60419;48.880;18.036;2024-01-30T05:37:06;26.38;;;13.27;;
72427;SDS011;60419;48.880;18.036;2024-01-30T05:39:52;23.48;;;11.57;;
72427;SDS011;60419;48.880;18.036;2024-01-30T05:42:37;23.38;;;12.10;;
72427;SDS011;60419;48.880;18.036;2024-01-30T05:45:23;23.73;;;12.88;;
72427;SDS011;60419;48.880;18.036;2024-01-30T05:48:08;25.15;;;11.98;;
72427;SDS011;60419;48.880;18.036;2024-01-30T05:50:54;22.63;;;10.35;;
72427;SDS011;60419;48.880;18.036;2024-01-30T05:53:39;18.50;;;10.23;;
72427;SDS011;60419;48.880;18.036;2024-01-30T05:56:25;25.38;;;12.38;;
72427;SDS011;60419;48.880;18.036;2024-01-30T05:59:10;25.90;;;12.10;;
72427;SDS011;60419;48.880;18.036;2024-01-30T06:01:56;23.80;;;12.80;;
72427;SDS011;60419;48.880;18.036;2024-01-30T06:04:41;25.55;;;11.88;;
72427;SDS011;60419;48.880;18.036;2024-01-30T06:07:26;28.63;;;13.82;;
72427;SDS011;60419;48.880;18.036;2024-01-30T06:10:12;24.42;;;11.40;;
72427;SDS011;60419;48.880;18.036;2024-01-30T06:12:57;22.38;;;11.38;;
72427;SDS011;60419;48.880;18.036;2024-01-30T06:15:42;22.17;;;11.38;;
72427;SDS011;60419;48.880;18.036;2024-01-30T06:18:28;22.90;;;12.23;;
72427;SDS011;60419;48.880;18.036;2024-01-30T06:21:15;23.30;;;11.80;;
72427;SDS011;60419;48.880;18.036;2024-01-30T06:24:01;23.35;;;11.48;;
72427;SDS011;60419;48.880;18.036;2024-01-30T06:26:46;23.13;;;12.43;;
72427;SDS011;60419;48.880;18.036;2024-01-30T06:29:31;24.52;;;12.05;;
72427;SDS011;60419;48.880;18.036;2024-01-30T06:32:17;24.65;;;11.93;;
72427;SDS011;60419;48.880;18.036;2024-01-30T06:35:03;22.02;;;11.35;;
72427;SDS011;60419;48.880;18.036;2024-01-30T06:37:48;27.38;;;12.45;;
72427;SDS011;60419;48.880;18.036;2024-01-30T06:40:34;24.17;;;12.30;;
72427;SDS011;60419;48.880;18.036;2024-01-30T06:43:19;20.42;;;11.27;;
72427;SDS011;60419;48.880;18.036;2024-01-30T06:46:05;23.05;;;11.38;;
72427;SDS011;60419;48.880;18.036;2024-01-30T06:48:50;26.15;;;11.23;;
72427;SDS011;60419;48.880;18.036;2024-01-30T06:51:35;21.33;;;11.93;;
72427;SDS011;60419;48.880;18.036;2024-01-30T06:54:21;24.13;;;11.05;;
72427;SDS011;60419;48.880;18.036;2024-01-30T06:57:06;30.20;;;12.52;;
72427;SDS011;60419;48.880;18.036;2024-01-30T06:59:56;22.25;;;11.85;;
72427;SDS011;60419;48.880;18.036;2024-01-30T07:02:42;22.85;;;11.77;;
72427;SDS011;60419;48.880;18.036;2024-01-30T07:05:27;21.98;;;10.63;;
72427;SDS011;60419;48.880;18.036;2024-01-30T07:08:12;23.92;;;12.25;;
72427;SDS011;60419;48.880;18.036;2024-01-30T07:10:58;26.95;;;12.70;;
72427;SDS011;60419;48.880;18.036;2024-01-30T07:13:43;22.98;;;11.13;;
72427;SDS011;60419;48.880;18.036;2024-01-30T07:16:29;19.95;;;11.15;;
72427;SDS011;60419;48.880;18.036;2024-01-30T07:19:14;22.73;;;11.18;;
72427;SDS011;60419;48.880;18.036;2024-01-30T07:22:00;23.95;;;12.30;;
72427;SDS011;60419;48.880;18.036;2024-01-30T07:24:46;24.45;;;11.48;;
72427;SDS011;60419;48.880;18.036;2024-01-30T07:27:33;18.92;;;9.77;;
72427;SDS011;60419;48.880;18.036;2024-01-30T07:30:19;20.50;;;10.25;;
72427;SDS011;60419;48.880;18.036;2024-01-30T07:33:04;20.77;;;10.68;;
72427;SDS011;60419;48.880;18.036;2024-01-30T07:35:51;23.10;;;11.73;;
72427;SDS011;60419;48.880;18.036;2024-01-30T07:38:37;21.63;;;9.95;;
72427;SDS011;60419;48.880;18.036;2024-01-30T07:41:23;21.00;;;10.63;;
72427;SDS011;60419;48.880;18.036;2024-01-30T07:44:10;20.08;;;9.90;;
72427;SDS011;60419;48.880;18.036;2024-01-30T07:46:55;19.92;;;10.77;;
72427;SDS011;60419;48.880;18.036;2024-01-30T07:49:40;21.33;;;10.25;;
72427;SDS011;60419;48.880;18.036;2024-01-30T07:52:26;23.33;;;11.00;;
72427;SDS011;60419;48.880;18.036;2024-01-30T07:55:11;18.58;;;10.02;;
72427;SDS011;60419;48.880;18.036;2024-01-30T07:57:57;26.10;;;10.05;;
72427;SDS011;60419;48.880;18.036;2024-01-30T08:00:44;22.55;;;10.00;;
72427;SDS011;60419;48.880;18.036;2024-01-30T08:03:29;18.98;;;10.32;;
72427;SDS011;60419;48.880;18.036;2024-01-30T08:06:14;19.80;;;10.57;;
72427;SDS011;60419;48.880;18.036;2024-01-30T08:09:00;18.83;;;10.07;;
72427;SDS011;60419;48.880;18.036;2024-01-30T08:11:45;17.83;;;9.68;;
72427;SDS011;60419;48.880;18.036;2024-01-30T08:14:30;17.38;;;9.85;;
72427;SDS011;60419;48.880;18.036;2024-01-30T08:17:16;19.95;;;9.70;;
72427;SDS011;60419;48.880;18.036;2024-01-30T08:20:02;20.23;;;9.73;;
72427;SDS011;60419;48.880;18.036;2024-01-30T08:22:49;16.70;;;8.90;;
72427;SDS011;60419;48.880;18.036;2024-01-30T08:25:35;19.52;;;9.50;;
72427;SDS011;60419;48.880;18.036;2024-01-30T08:28:21;16.65;;;9.20;;
72427;SDS011;60419;48.880;18.036;2024-01-30T08:31:06;19.67;;;9.23;;
72427;SDS011;60419;48.880;18.036;2024-01-30T08:33:52;18.35;;;9.90;;
72427;SDS011;60419;48.880;18.036;2024-01-30T08:36:37;20.77;;;9.73;;
72427;SDS011;60419;48.880;18.036;2024-01-30T08:39:23;16.33;;;8.77;;
72427;SDS011;60419;48.880;18.036;2024-01-30T08:42:08;18.75;;;9.05;;
72427;SDS011;60419;48.880;18.036;2024-01-30T08:44:53;17.67;;;9.70;;
72427;SDS011;60419;48.880;18.036;2024-01-30T08:47:40;18.13;;;8.32;;
72427;SDS011;60419;48.880;18.036;2024-01-30T08:50:25;17.35;;;8.88;;
72427;SDS011;60419;48.880;18.036;2024-01-30T08:53:11;22.38;;;9.23;;
72427;SDS011;60419;48.880;18.036;2024-01-30T08:55:56;18.92;;;9.85;;
72427;SDS011;60419;48.880;18.036;2024-01-30T08:58:44;17.60;;;8.35;;
72427;SDS011;60419;48.880;18.036;2024-01-30T09:01:29;17.40;;;8.35;;
72427;SDS011;60419;48.880;18.036;2024-01-30T09:04:14;17.42;;;8.95;;
72427;SDS011;60419;48.880;18.036;2024-01-30T09:07:00;16.02;;;8.27;;
72427;SDS011;60419;48.880;18.036;2024-01-30T09:09:45;16.65;;;8.55;;
72427;SDS011;60419;48.880;18.036;2024-01-30T09:12:30;16.45;;;8.40;;
72427;SDS011;60419;48.880;18.036;2024-01-30T09:15:16;16.77;;;8.93;;
72427;SDS011;60419;48.880;18.036;2024-01-30T09:18:01;14.75;;;7.75;;
72427;SDS011;60419;48.880;18.036;2024-01-30T09:20:47;16.50;;;8.10;;
72427;SDS011;60419;48.880;18.036;2024-01-30T09:23:32;16.42;;;8.68;;
72427;SDS011;60419;48.880;18.036;2024-01-30T09:26:18;20.17;;;9.02;;
72427;SDS011;60419;48.880;18.036;2024-01-30T09:29:03;18.23;;;8.93;;
72427;SDS011;60419;48.880;18.036;2024-01-30T09:31:49;17.77;;;8.45;;
72427;SDS011;60419;48.880;18.036;2024-01-30T09:34:34;17.52;;;8.95;;
72427;SDS011;60419;48.880;18.036;2024-01-30T09:37:20;18.08;;;8.55;;
72427;SDS011;60419;48.880;18.036;2024-01-30T09:40:05;15.93;;;8.95;;
72427;SDS011;60419;48.880;18.036;2024-01-30T09:42:53;17.02;;;8.52;;
72427;SDS011;60419;48.880;18.036;2024-01-30T09:45:39;18.67;;;8.40;;
72427;SDS011;60419;48.880;18.036;2024-01-30T09:48:27;16.52;;;8.40;;
72427;SDS011;60419;48.880;18.036;2024-01-30T09:51:16;17.05;;;8.63;;
72427;SDS011;60419;48.880;18.036;2024-01-30T09:54:02;14.63;;;7.50;;
72427;SDS011;60419;48.880;18.036;2024-01-30T09:56:48;16.20;;;8.35;;
72427;SDS011;60419;48.880;18.036;2024-01-30T09:59:33;22.95;;;8.35;;
72427;SDS011;60419;48.880;18.036;2024-01-30T10:02:19;16.33;;;8.30;;
72427;SDS011;60419;48.880;18.036;2024-01-30T10:05:05;16.33;;;8.10;;
72427;SDS011;60419;48.880;18.036;2024-01-30T10:07:54;12.65;;;7.50;;
72427;SDS011;60419;48.880;18.036;2024-01-30T10:10:45;18.15;;;8.23;;
72427;SDS011;60419;48.880;18.036;2024-01-30T10:13:31;13.90;;;7.47;;
72427;SDS011;60419;48.880;18.036;2024-01-30T10:16:17;15.30;;;7.60;;
72427;SDS011;60419;48.880;18.036;2024-01-30T10:19:02;12.07;;;7.00;;
72427;SDS011;60419;48.880;18.036;2024-01-30T10:21:48;13.63;;;7.80;;
72427;SDS011;60419;48.880;18.036;2024-01-30T10:24:33;13.07;;;7.18;;
72427;SDS011;60419;48.880;18.036;2024-01-30T10:27:23;15.60;;;7.80;;
72427;SDS011;60419;48.880;18.036;2024-01-30T10:30:12;16.70;;;8.48;;
72427;SDS011;60419;48.880;18.036;2024-01-30T10:32:57;17.70;;;7.88;;
72427;SDS011;60419;48.880;18.036;2024-01-30T10:35:43;12.63;;;7.38;;
72427;SDS011;60419;48.880;18.036;2024-01-30T10:38:29;12.50;;;7.32;;
72427;SDS011;60419;48.880;18.036;2024-01-30T10:41:15;14.55;;;7.65;;
72427;SDS011;60419;48.880;18.036;2024-01-30T10:44:08;19.00;;;7.70;;
72427;SDS011;60419;48.880;18.036;2024-01-30T10:46:56;15.65;;;7.80;;
72427;SDS011;60419;48.880;18.036;2024-01-30T10:49:48;16.40;;;7.70;;
72427;SDS011;60419;48.880;18.036;2024-01-30T10:52:34;17.98;;;8.32;;
72427;SDS011;60419;48.880;18.036;2024-01-30T10:55:20;15.98;;;7.40;;
72427;SDS011;60419;48.880;18.036;2024-01-30T10:58:06;14.52;;;8.18;;
72427;SDS011;60419;48.880;18.036;2024-01-30T11:00:53;14.95;;;8.50;;
72427;SDS011;60419;48.880;18.036;2024-01-30T11:03:39;14.65;;;7.55;;
72427;SDS011;60419;48.880;18.036;2024-01-30T11:06:26;13.48;;;7.80;;
72427;SDS011;60419;48.880;18.036;2024-01-30T11:09:11;15.10;;;7.85;;
72427;SDS011;60419;48.880;18.036;2024-01-30T11:11:58;15.05;;;7.50;;
72427;SDS011;60419;48.880;18.036;2024-01-30T11:14:47;13.77;;;7.40;;
72427;SDS011;60419;48.880;18.036;2024-01-30T11:17:41;14.05;;;7.85;;
72427;SDS011;60419;48.880;18.036;2024-01-30T11:20:27;15.88;;;7.85;;
72427;SDS011;60419;48.880;18.036;2024-01-30T11:23:16;13.32;;;7.38;;
72427;SDS011;60419;48.880;18.036;2024-01-30T11:26:01;16.67;;;7.70;;
72427;SDS011;60419;48.880;18.036;2024-01-30T11:28:52;11.50;;;7.22;;
72427;SDS011;60419;48.880;18.036;2024-01-30T11:31:38;13.25;;;7.28;;
72427;SDS011;60419;48.880;18.036;2024-01-30T11:34:24;13.93;;;7.30;;
72427;SDS011;60419;48.880;18.036;2024-01-30T11:37:10;18.08;;;8.52;;
72427;SDS011;60419;48.880;18.036;2024-01-30T11:39:58;15.00;;;7.82;;
72427;SDS011;60419;48.880;18.036;2024-01-30T11:42:43;15.93;;;8.02;;
72427;SDS011;60419;48.880;18.036;2024-01-30T11:45:30;14.02;;;7.72;;
72427;SDS011;60419;48.880;18.036;2024-01-30T11:48:16;12.57;;;7.13;;
72427;SDS011;60419;48.880;18.036;2024-01-30T11:51:02;11.07;;;6.82;;
72427;SDS011;60419;48.880;18.036;2024-01-30T11:53:49;16.85;;;7.53;;
72427;SDS011;60419;48.880;18.036;2024-01-30T11:56:36;14.60;;;7.32;;
72427;SDS011;60419;48.880;18.036;2024-01-30T11:59:22;13.68;;;7.90;;
72427;SDS011;60419;48.880;18.036;2024-01-30T12:02:07;16.73;;;8.60;;
72427;SDS011;60419;48.880;18.036;2024-01-30T12:04:53;14.60;;;7.22;;
72427;SDS011;60419;48.880;18.036;2024-01-30T12:07:38;11.23;;;6.68;;
72427;SDS011;60419;48.880;18.036;2024-01-30T12:10:23;14.50;;;7.55;;
72427;SDS011;60419;48.880;18.036;2024-01-30T12:13:09;10.65;;;6.80;;
72427;SDS011;60419;48.880;18.036;2024-01-30T12:15:54;17.85;;;7.05;;
72427;SDS011;60419;48.880;18.036;2024-01-30T12:18:40;14.40;;;7.13;;
72427;SDS011;60419;48.880;18.036;2024-01-30T12:21:26;15.48;;;7.90;;
72427;SDS011;60419;48.880;18.036;2024-01-30T12:24:11;13.77;;;7.10;;
72427;SDS011;60419;48.880;18.036;2024-01-30T12:26:57;13.77;;;6.90;;
72427;SDS011;60419;48.880;18.036;2024-01-30T12:29:43;14.27;;;6.60;;
72427;SDS011;60419;48.880;18.036;2024-01-30T12:32:29;13.82;;;7.63;;
72427;SDS011;60419;48.880;18.036;2024-01-30T12:35:15;13.57;;;7.47;;
72427;SDS011;60419;48.880;18.036;2024-01-30T12:38:01;13.30;;;6.80;;
72427;SDS011;60419;48.880;18.036;2024-01-30T12:40:47;13.95;;;7.00;;
72427;SDS011;60419;48.880;18.036;2024-01-30T12:43:33;15.00;;;7.43;;
72427;SDS011;60419;48.880;18.036;2024-01-30T12:46:19;12.57;;;6.95;;
72427;SDS011;60419;48.880;18.036;2024-01-30T12:49:04;12.27;;;6.78;;
72427;SDS011;60419;48.880;18.036;2024-01-30T12:51:49;13.02;;;7.10;;
72427;SDS011;60419;48.880;18.036;2024-01-30T12:54:35;13.95;;;6.30;;
72427;SDS011;60419;48.880;18.036;2024-01-30T12:57:20;13.68;;;6.53;;
72427;SDS011;60419;48.880;18.036;2024-01-30T13:00:06;10.52;;;6.40;;
72427;SDS011;60419;48.880;18.036;2024-01-30T13:02:53;11.52;;;6.28;;
72427;SDS011;60419;48.880;18.036;2024-01-30T13:05:38;9.55;;;5.80;;
72427;SDS011;60419;48.880;18.036;2024-01-30T13:08:24;9.85;;;5.32;;
72427;SDS011;60419;48.880;18.036;2024-01-30T13:11:09;11.05;;;5.38;;
72427;SDS011;60419;48.880;18.036;2024-01-30T13:13:54;9.57;;;5.38;;
72427;SDS011;60419;48.880;18.036;2024-01-30T13:16:40;10.32;;;5.20;;
72427;SDS011;60419;48.880;18.036;2024-01-30T13:19:25;10.43;;;4.90;;
72427;SDS011;60419;48.880;18.036;2024-01-30T13:22:10;10.55;;;4.95;;
72427;SDS011;60419;48.880;18.036;2024-01-30T13:24:56;9.52;;;4.80;;
72427;SDS011;60419;48.880;18.036;2024-01-30T13:27:41;11.45;;;5.47;;
72427;SDS011;60419;48.880;18.036;2024-01-30T13:30:27;9.75;;;5.07;;
72427;SDS011;60419;48.880;18.036;2024-01-30T13:33:12;7.85;;;4.57;;
72427;SDS011;60419;48.880;18.036;2024-01-30T13:36:08;8.43;;;4.85;;
72427;SDS011;60419;48.880;18.036;2024-01-30T13:39:17;8.05;;;4.40;;
72427;SDS011;60419;48.880;18.036;2024-01-30T13:42:06;9.13;;;4.53;;
72427;SDS011;60419;48.880;18.036;2024-01-30T13:48:52;9.48;;;4.85;;
72427;SDS011;60419;48.880;18.036;2024-01-30T13:51:43;8.05;;;4.25;;
72427;SDS011;60419;48.880;18.036;2024-01-30T14:01:34;9.15;;;3.90;;
72427;SDS011;60419;48.880;18.036;2024-01-30T14:11:53;11.57;;;4.95;;
72427;SDS011;60419;48.880;18.036;2024-01-30T14:14:39;7.63;;;3.50;;
72427;SDS011;60419;48.880;18.036;2024-01-30T14:17:24;7.25;;;3.88;;
72427;SDS011;60419;48.880;18.036;2024-01-30T14:20:10;12.00;;;4.10;;
72427;SDS011;60419;48.880;18.036;2024-01-30T14:22:56;7.40;;;3.58;;
72427;SDS011;60419;48.880;18.036;2024-01-30T14:25:41;6.45;;;3.65;;
72427;SDS011;60419;48.880;18.036;2024-01-30T14:28:26;9.02;;;3.70;;
72427;SDS011;60419;48.880;18.036;2024-01-30T14:31:12;7.57;;;3.70;;
72427;SDS011;60419;48.880;18.036;2024-01-30T14:33:57;8.27;;;4.40;;
72427;SDS011;60419;48.880;18.036;2024-01-30T14:36:43;6.47;;;3.88;;
72427;SDS011;60419;48.880;18.036;2024-01-30T14:39:29;6.93;;;3.67;;
72427;SDS011;60419;48.880;18.036;2024-01-30T14:42:15;6.72;;;3.83;;
72427;SDS011;60419;48.880;18.036;2024-01-30T14:45:00;7.13;;;3.83;;
72427;SDS011;60419;48.880;18.036;2024-01-30T14:47:46;7.75;;;4.03;;
72427;SDS011;60419;48.880;18.036;2024-01-30T14:50:32;8.43;;;3.78;;
72427;SDS011;60419;48.880;18.036;2024-01-30T14:53:18;7.07;;;3.50;;
72427;SDS011;60419;48.880;18.036;2024-01-30T14:56:05;8.27;;;3.63;;
72427;SDS011;60419;48.880;18.036;2024-01-30T14:58:51;6.57;;;3.47;;
72427;SDS011;60419;48.880;18.036;2024-01-30T15:01:36;6.63;;;3.38;;
72427;SDS011;60419;48.880;18.036;2024-01-30T15:04:21;7.40;;;3.75;;
72427;SDS011;60419;48.880;18.036;2024-01-30T15:07:07;6.97;;;3.67;;
72427;SDS011;60419;48.880;18.036;2024-01-30T15:09:53;6.47;;;3.50;;
72427;SDS011;60419;48.880;18.036;2024-01-30T15:12:38;6.30;;;3.38;;
72427;SDS011;60419;48.880;18.036;2024-01-30T15:15:24;6.05;;;3.53;;
72427;SDS011;60419;48.880;18.036;2024-01-30T15:18:09;6.88;;;3.58;;
72427;SDS011;60419;48.880;18.036;2024-01-30T15:20:57;8.90;;;4.07;;
72427;SDS011;60419;48.880;18.036;2024-01-30T15:23:42;7.57;;;3.78;;
72427;SDS011;60419;48.880;18.036;2024-01-30T15:26:28;9.25;;;4.05;;
72427;SDS011;60419;48.880;18.036;2024-01-30T15:29:14;7.85;;;3.70;;
72427;SDS011;60419;48.880;18.036;2024-01-30T15:31:59;7.32;;;3.95;;
72427;SDS011;60419;48.880;18.036;2024-01-30T15:34:45;12.52;;;4.80;;
72427;SDS011;60419;48.880;18.036;2024-01-30T15:37:30;9.85;;;4.30;;
72427;SDS011;60419;48.880;18.036;2024-01-30T15:40:15;8.38;;;4.10;;
72427;SDS011;60419;48.880;18.036;2024-01-30T15:43:01;13.70;;;4.47;;
72427;SDS011;60419;48.880;18.036;2024-01-30T15:45:46;10.15;;;3.90;;
72427;SDS011;60419;48.880;18.036;2024-01-30T15:48:32;9.20;;;4.63;;
72427;SDS011;60419;48.880;18.036;2024-01-30T15:51:17;8.32;;;4.47;;
72427;SDS011;60419;48.880;18.036;2024-01-30T15:54:02;8.93;;;4.47;;
72427;SDS011;60419;48.880;18.036;2024-01-30T15:56:48;6.90;;;3.95;;
72427;SDS011;60419;48.880;18.036;2024-01-30T15:59:33;7.88;;;4.32;;
72427;SDS011;60419;48.880;18.036;2024-01-30T16:02:19;6.95;;;4.10;;
72427;SDS011;60419;48.880;18.036;2024-01-30T16:05:05;9.07;;;4.10;;
72427;SDS011;60419;48.880;18.036;2024-01-30T16:07:52;8.00;;;4.32;;
72427;SDS011;60419;48.880;18.036;2024-01-30T16:10:37;8.48;;;4.50;;
72427;SDS011;60419;48.880;18.036;2024-01-30T16:13:23;10.48;;;5.32;;
72427;SDS011;60419;48.880;18.036;2024-01-30T16:16:08;9.98;;;5.78;;
72427;SDS011;60419;48.880;18.036;2024-01-30T16:18:54;9.85;;;6.03;;
72427;SDS011;60419;48.880;18.036;2024-01-30T16:21:39;10.95;;;5.47;;
72427;SDS011;60419;48.880;18.036;2024-01-30T16:24:28;12.15;;;5.43;;
72427;SDS011;60419;48.880;18.036;2024-01-30T16:27:14;13.00;;;6.15;;